createdAt,value
2018-11-26T00:00:39.874Z,49.65
2018-11-26T00:01:45.298Z,47.53
2018-11-26T00:02:51.075Z,48.52
2018-11-26T00:03:56.369Z,49.55
2018-11-26T00:05:02.036Z,46.42
2018-11-26T00:06:22.307Z,42.67
2018-11-26T00:07:28.507Z,41.95
2018-11-26T00:08:33.904Z,43.78
2018-11-26T00:09:39.324Z,42.13
2018-11-26T00:10:55.034Z,42.95
2018-11-26T00:12:01.719Z,42.20
2018-11-26T00:13:07.323Z,41.77
2018-11-26T00:14:12.734Z,40.30
2018-11-26T00:15:18.113Z,41.77
2018-11-26T00:16:23.267Z,38.92
2018-11-26T00:17:28.469Z,41.70
2018-11-26T00:18:33.682Z,41.10
2018-11-26T00:19:38.902Z,38.83
2018-11-26T00:20:44.071Z,40.70
2018-11-26T00:21:49.118Z,40.08
2018-11-26T00:22:54.313Z,38.28
2018-11-26T00:23:59.290Z,39.88
2018-11-26T00:25:04.447Z,39.23
2018-11-26T00:26:09.486Z,36.35
2018-11-26T00:27:14.479Z,38.95
2018-11-26T00:28:19.470Z,38.42
2018-11-26T00:29:24.591Z,37.73
2018-11-26T00:30:29.614Z,39.75
2018-11-26T00:31:34.638Z,38.02
2018-11-26T00:32:40.719Z,37.45
2018-11-26T00:33:45.782Z,39.18
2018-11-26T00:34:50.825Z,38.17
2018-11-26T00:35:55.961Z,37.67
2018-11-26T00:37:00.986Z,39.20
2018-11-26T00:38:06.072Z,38.63
2018-11-26T00:39:12.282Z,36.58
2018-11-26T00:40:17.366Z,37.58
2018-11-26T00:41:22.406Z,38.35
2018-11-26T00:42:27.419Z,36.60
2018-11-26T00:43:33.954Z,38.53
2018-11-26T00:44:38.980Z,38.67
2018-11-26T00:45:44.188Z,39.00
2018-11-26T00:46:49.499Z,36.00
2018-11-26T00:47:54.651Z,39.00
2018-11-26T00:48:59.726Z,39.27
2018-11-26T00:50:05.273Z,38.25
2018-11-26T00:51:10.490Z,38.95
2018-11-26T00:52:15.692Z,37.88
2018-11-26T00:53:21.000Z,37.98
2018-11-26T00:54:26.149Z,39.20
2018-11-26T00:55:32.267Z,37.88
2018-11-26T00:56:38.351Z,39.00
2018-11-26T00:57:43.604Z,39.30
2018-11-26T00:58:48.855Z,40.52
2018-11-26T00:59:54.052Z,37.88
2018-11-26T01:00:59.225Z,41.60
2018-11-26T01:02:04.648Z,39.27
2018-11-26T01:03:09.900Z,39.70
2018-11-26T01:04:15.095Z,41.58
2018-11-26T01:05:35.079Z,39.78
2018-11-26T01:06:40.569Z,40.60
2018-11-26T01:07:45.755Z,43.40
2018-11-26T01:08:51.021Z,41.55
2018-11-26T01:09:56.035Z,39.42
2018-11-26T01:11:01.029Z,42.17
2018-11-26T01:12:06.325Z,40.88
2018-11-26T01:13:11.927Z,41.68
2018-11-26T01:14:17.259Z,38.95
2018-11-26T01:15:22.464Z,39.63
2018-11-26T01:16:27.635Z,41.60
2018-11-26T01:17:32.856Z,39.83
2018-11-26T01:18:38.153Z,39.50
2018-11-26T01:19:43.375Z,39.58
2018-11-26T01:20:48.489Z,38.53
2018-11-26T01:21:53.810Z,39.20
2018-11-26T01:23:00.184Z,38.10
2018-11-26T01:24:05.565Z,40.10
2018-11-26T01:25:11.270Z,40.98
2018-11-26T01:26:16.403Z,41.05
2018-11-26T01:27:21.565Z,38.35
2018-11-26T01:28:27.039Z,35.38
2018-11-26T01:29:32.389Z,35.78
2018-11-26T01:30:38.003Z,35.85
2018-11-26T01:31:43.326Z,37.85
2018-11-26T01:32:48.532Z,35.95
2018-11-26T01:33:53.767Z,36.03
2018-11-26T01:34:58.919Z,36.33
2018-11-26T01:36:04.132Z,37.30
2018-11-26T01:37:09.272Z,38.48
2018-11-26T01:38:14.386Z,37.38
2018-11-26T01:39:19.626Z,36.00
2018-11-26T01:40:30.511Z,37.20
2018-11-26T01:41:35.695Z,35.95
2018-11-26T01:42:41.569Z,35.25
2018-11-26T01:43:46.769Z,35.80
2018-11-26T01:44:52.016Z,39.70
2018-11-26T01:45:57.147Z,36.60
2018-11-26T01:47:02.986Z,38.10
2018-11-26T01:48:08.260Z,38.83
2018-11-26T01:49:13.414Z,38.25
2018-11-26T01:50:18.563Z,36.42
2018-11-26T01:51:23.786Z,38.38
2018-11-26T01:52:29.575Z,37.95
2018-11-26T01:53:34.737Z,38.73
2018-11-26T01:54:39.898Z,37.45
2018-11-26T01:55:45.124Z,37.48
2018-11-26T01:56:50.633Z,36.90
2018-11-26T01:57:55.787Z,34.90
2018-11-26T01:59:00.972Z,36.75
2018-11-26T02:00:37.847Z,37.75
2018-11-26T02:01:43.063Z,36.40
2018-11-26T02:02:48.388Z,36.13
2018-11-26T02:03:53.516Z,38.42
2018-11-26T02:04:58.813Z,38.13
2018-11-26T02:06:03.923Z,39.25
2018-11-26T02:07:09.132Z,39.18
2018-11-26T02:08:14.401Z,38.63
2018-11-26T02:09:19.825Z,38.42
2018-11-26T02:10:25.097Z,37.98
2018-11-26T02:11:30.320Z,37.65
2018-11-26T02:12:35.717Z,37.13
2018-11-26T02:13:40.797Z,36.25
2018-11-26T02:14:46.121Z,37.67
2018-11-26T02:15:51.216Z,40.15
2018-11-26T02:16:56.405Z,38.10
2018-11-26T02:18:01.531Z,37.25
2018-11-26T02:19:07.072Z,38.08
2018-11-26T02:20:12.358Z,38.17
2018-11-26T02:21:17.390Z,36.45
2018-11-26T02:22:22.398Z,37.17
2018-11-26T02:23:28.786Z,35.48
2018-11-26T02:24:33.874Z,34.60
2018-11-26T02:25:39.090Z,33.35
2018-11-26T02:26:44.154Z,30.72
2018-11-26T02:27:49.142Z,30.23
2018-11-26T02:28:54.124Z,28.38
2018-11-26T02:29:59.092Z,26.55
2018-11-26T02:31:04.754Z,26.55
2018-11-26T02:32:09.938Z,27.17
2018-11-26T02:33:14.903Z,24.70
2018-11-26T02:34:19.899Z,27.45
2018-11-26T02:35:24.930Z,25.75
2018-11-26T02:36:30.001Z,24.95
2018-11-26T02:37:35.572Z,25.82
2018-11-26T02:38:40.801Z,24.67
2018-11-26T02:39:46.468Z,24.07
2018-11-26T02:40:51.587Z,26.02
2018-11-26T02:41:56.765Z,26.30
2018-11-26T02:43:01.921Z,24.23
2018-11-26T02:44:07.073Z,23.20
2018-11-26T02:45:12.248Z,24.65
2018-11-26T02:46:17.637Z,23.05
2018-11-26T02:47:23.324Z,23.92
2018-11-26T02:48:28.572Z,23.27
2018-11-26T02:49:33.793Z,24.55
2018-11-26T02:50:39.916Z,23.40
2018-11-26T02:51:45.124Z,25.50
2018-11-26T02:52:50.617Z,25.17
2018-11-26T02:53:56.039Z,24.70
2018-11-26T02:55:01.970Z,28.62
2018-11-26T02:56:07.121Z,27.70
2018-11-26T02:57:12.662Z,28.95
2018-11-26T02:58:18.261Z,28.85
2018-11-26T02:59:23.935Z,27.65
2018-11-26T03:00:29.045Z,29.72
2018-11-26T03:01:34.213Z,31.42
2018-11-26T03:02:39.359Z,30.35
2018-11-26T03:03:44.502Z,32.65
2018-11-26T03:04:49.628Z,30.60
2018-11-26T03:05:54.737Z,31.25
2018-11-26T03:06:59.859Z,31.65
2018-11-26T03:08:05.077Z,29.63
2018-11-26T03:09:10.230Z,28.80
2018-11-26T03:10:15.313Z,29.35
2018-11-26T03:11:20.507Z,28.02
2018-11-26T03:12:25.708Z,28.80
2018-11-26T03:13:30.863Z,28.77
2018-11-26T03:14:36.057Z,30.85
2018-11-26T03:18:10.675Z,24.27
2018-11-26T03:19:15.764Z,25.30
2018-11-26T03:20:20.889Z,25.82
2018-11-26T03:21:26.000Z,25.65
2018-11-26T03:22:31.165Z,25.00
2018-11-26T03:23:36.270Z,23.18
2018-11-26T03:24:41.341Z,23.47
2018-11-26T03:25:46.451Z,23.25
2018-11-26T03:26:51.566Z,24.40
2018-11-26T03:27:57.233Z,23.30
2018-11-26T03:29:02.884Z,23.27
2018-11-26T03:30:11.831Z,22.87
2018-11-26T03:31:17.113Z,22.10
2018-11-26T03:32:22.268Z,22.67
2018-11-26T03:33:27.418Z,21.60
2018-11-26T03:34:32.649Z,22.77
2018-11-26T03:35:37.727Z,22.25
2018-11-26T03:36:43.172Z,21.27
2018-11-26T03:37:48.359Z,19.48
2018-11-26T03:38:54.602Z,19.73
2018-11-26T03:39:59.732Z,19.07
2018-11-26T03:41:05.982Z,19.98
2018-11-26T03:42:11.021Z,19.67
2018-11-26T03:43:16.219Z,20.05
2018-11-26T03:44:22.215Z,19.77
2018-11-26T03:45:27.503Z,19.62
2018-11-26T03:46:32.719Z,20.50
2018-11-26T03:47:38.248Z,19.87
2018-11-26T03:48:43.548Z,19.10
2018-11-26T03:49:53.229Z,19.00
2018-11-26T03:50:58.339Z,18.95
2018-11-26T03:52:03.438Z,19.32
2018-11-26T03:53:08.620Z,18.30
2018-11-26T03:54:13.725Z,20.72
2018-11-26T03:55:19.663Z,18.73
2018-11-26T03:56:24.753Z,20.02
2018-11-26T03:57:29.911Z,18.80
2018-11-26T03:58:35.275Z,20.05
2018-11-26T03:59:40.484Z,19.12
2018-11-26T04:00:46.069Z,19.62
2018-11-26T04:01:51.222Z,19.02
2018-11-26T04:02:56.367Z,19.75
2018-11-26T04:04:01.601Z,21.00
2018-11-26T04:05:07.448Z,20.27
2018-11-26T04:06:13.749Z,19.90
2018-11-26T04:07:18.890Z,19.73
2018-11-26T04:08:25.008Z,20.00
2018-11-26T04:09:30.270Z,22.17
2018-11-26T04:10:35.422Z,18.77
2018-11-26T04:11:40.584Z,19.60
2018-11-26T04:12:45.728Z,20.48
2018-11-26T04:13:50.868Z,21.00
2018-11-26T04:14:56.075Z,20.48
2018-11-26T04:16:01.232Z,20.23
2018-11-26T04:17:07.159Z,20.27
2018-11-26T04:18:12.269Z,19.07
2018-11-26T04:19:17.351Z,20.40
2018-11-26T04:20:22.507Z,21.30
2018-11-26T04:21:27.637Z,19.15
2018-11-26T04:22:32.704Z,21.55
2018-11-26T04:23:37.799Z,20.27
2018-11-26T04:24:43.253Z,20.97
2018-11-26T04:25:48.418Z,21.15
2018-11-26T04:26:53.503Z,20.12
2018-11-26T04:27:59.641Z,21.10
2018-11-26T04:29:04.763Z,19.35
2018-11-26T04:30:12.413Z,20.08
2018-11-26T04:31:17.609Z,19.77
2018-11-26T04:32:22.776Z,20.05
2018-11-26T04:33:28.008Z,19.87
2018-11-26T04:34:33.245Z,19.82
2018-11-26T04:35:38.436Z,18.92
2018-11-26T04:36:43.752Z,20.02
2018-11-26T04:37:48.942Z,19.80
2018-11-26T04:38:54.204Z,20.30
2018-11-26T04:39:59.298Z,20.52
2018-11-26T04:41:04.453Z,22.85
2018-11-26T04:42:09.697Z,22.30
2018-11-26T04:43:14.937Z,22.10
2018-11-26T04:44:20.218Z,21.02
2018-11-26T04:45:26.243Z,21.85
2018-11-26T04:46:31.696Z,23.15
2018-11-26T04:47:36.944Z,21.93
2018-11-26T04:48:42.224Z,23.73
2018-11-26T04:49:47.326Z,24.23
2018-11-26T04:50:52.418Z,23.80
2018-11-26T04:51:57.495Z,24.37
2018-11-26T04:53:02.542Z,25.82
2018-11-26T04:54:07.561Z,26.60
2018-11-26T04:55:13.579Z,26.75
2018-11-26T04:56:18.962Z,26.48
2018-11-26T04:57:24.188Z,26.87
2018-11-26T04:58:29.356Z,28.87
2018-11-26T04:59:34.573Z,28.07
2018-11-26T05:00:39.740Z,28.73
2018-11-26T05:01:44.924Z,30.12
2018-11-26T05:02:50.065Z,29.55
2018-11-26T05:03:55.178Z,29.45
2018-11-26T05:05:00.243Z,29.60
2018-11-26T05:06:05.338Z,27.85
2018-11-26T05:07:10.545Z,28.20
2018-11-26T05:08:15.655Z,26.00
2018-11-26T05:09:21.390Z,26.87
2018-11-26T05:10:26.802Z,27.15
2018-11-26T05:11:31.995Z,26.95
2018-11-26T05:12:37.082Z,24.90
2018-11-26T05:13:42.151Z,23.73
2018-11-26T05:14:47.930Z,24.47
2018-11-26T05:15:53.794Z,23.65
2018-11-26T05:16:58.951Z,22.73
2018-11-26T05:18:04.083Z,21.02
2018-11-26T05:19:09.185Z,23.85
2018-11-26T05:20:15.046Z,23.85
2018-11-26T05:21:20.720Z,22.52
2018-11-26T05:22:26.311Z,21.52
2018-11-26T05:23:31.408Z,22.48
2018-11-26T05:24:36.492Z,20.77
2018-11-26T05:25:42.583Z,21.45
2018-11-26T05:26:47.701Z,21.10
2018-11-26T05:27:52.752Z,22.02
2018-11-26T05:28:57.820Z,22.40
2018-11-26T05:30:02.955Z,21.20
2018-11-26T05:31:08.212Z,22.65
2018-11-26T05:32:13.178Z,23.18
2018-11-26T05:33:18.177Z,22.20
2018-11-26T05:34:23.265Z,21.97
2018-11-26T05:35:28.322Z,23.70
2018-11-26T05:36:33.450Z,23.47
2018-11-26T05:37:40.114Z,24.67
2018-11-26T05:38:46.697Z,23.27
2018-11-26T05:39:51.946Z,21.45
2018-11-26T05:40:57.330Z,22.55
2018-11-26T05:42:02.366Z,23.42
2018-11-26T05:43:07.467Z,23.07
2018-11-26T05:44:12.689Z,24.50
2018-11-26T05:45:18.046Z,24.90
2018-11-26T05:46:23.123Z,23.40
2018-11-26T05:47:28.286Z,22.37
2018-11-26T05:48:33.986Z,21.02
2018-11-26T05:49:39.194Z,22.93
2018-11-26T05:50:44.339Z,23.70
2018-11-26T05:51:49.435Z,20.37
2018-11-26T05:52:54.583Z,19.73
2018-11-26T05:53:59.767Z,19.75
2018-11-26T05:55:05.970Z,18.73
2018-11-26T05:56:11.113Z,17.85
2018-11-26T05:57:16.670Z,16.70
2018-11-26T05:58:22.526Z,16.20
2018-11-26T05:59:27.707Z,18.30
2018-11-26T06:00:35.212Z,17.12
2018-11-26T06:01:47.405Z,17.27
2018-11-26T06:02:56.974Z,16.67
2018-11-26T06:04:02.145Z,18.00
2018-11-26T06:05:08.326Z,16.85
2018-11-26T06:06:13.413Z,17.42
2018-11-26T06:07:18.614Z,16.93
2018-11-26T06:08:23.899Z,18.57
2018-11-26T06:09:29.213Z,18.73
2018-11-26T06:10:34.296Z,18.67
2018-11-26T06:11:40.730Z,15.98
2018-11-26T06:12:45.835Z,16.23
2018-11-26T06:13:51.075Z,16.87
2018-11-26T06:14:56.350Z,17.12
2018-11-26T06:16:01.399Z,15.60
2018-11-26T06:17:06.948Z,16.62
2018-11-26T06:18:12.567Z,16.35
2018-11-26T06:19:17.815Z,15.28
2018-11-26T06:20:23.359Z,16.82
2018-11-26T06:21:29.053Z,17.40
2018-11-26T06:22:34.573Z,17.30
2018-11-26T06:23:39.823Z,17.23
2018-11-26T06:24:45.140Z,16.95
2018-11-26T06:25:50.418Z,17.35
2018-11-26T06:26:55.486Z,16.23
2018-11-26T06:28:00.574Z,15.93
2018-11-26T06:29:05.739Z,15.63
2018-11-26T06:30:12.657Z,15.08
2018-11-26T06:31:17.982Z,15.63
2018-11-26T06:32:23.455Z,15.75
2018-11-26T06:33:28.511Z,15.85
2018-11-26T06:34:34.206Z,15.15
2018-11-26T06:35:40.169Z,15.65
2018-11-26T06:36:45.276Z,14.93
2018-11-26T06:37:50.808Z,15.43
2018-11-26T06:38:56.354Z,14.83
2018-11-26T06:40:01.532Z,16.10
2018-11-26T06:41:06.748Z,16.27
2018-11-26T06:42:11.944Z,15.30
2018-11-26T06:43:17.492Z,15.78
2018-11-26T06:44:22.362Z,15.90
2018-11-26T06:45:27.536Z,16.55
2018-11-26T06:55:43.274Z,16.05
2018-11-26T06:56:48.396Z,15.93
2018-11-26T06:57:53.733Z,16.80
2018-11-26T06:58:58.951Z,16.97
2018-11-26T07:00:05.870Z,17.07
2018-11-26T07:01:11.605Z,19.27
2018-11-26T07:02:17.185Z,19.95
2018-11-26T07:03:22.436Z,19.25
2018-11-26T07:04:28.230Z,18.67
2018-11-26T07:05:33.428Z,20.00
2018-11-26T07:06:38.717Z,18.17
2018-11-26T07:07:44.327Z,21.05
2018-11-26T07:08:49.446Z,19.80
2018-11-26T07:09:54.601Z,20.82
2018-11-26T07:10:59.794Z,19.57
2018-11-26T07:12:05.013Z,19.52
2018-11-26T07:13:10.101Z,20.35
2018-11-26T07:14:15.332Z,20.23
2018-11-26T07:15:21.790Z,21.17
2018-11-26T07:16:27.015Z,20.15
2018-11-26T07:17:32.265Z,21.05
2018-11-26T07:18:37.386Z,19.20
2018-11-26T07:19:42.455Z,21.20
2018-11-26T07:20:48.271Z,19.90
2018-11-26T07:21:53.439Z,19.17
2018-11-26T07:22:58.549Z,19.25
2018-11-26T07:24:03.762Z,20.40
2018-11-26T07:25:12.094Z,19.85
2018-11-26T07:26:17.203Z,19.65
2018-11-26T07:27:22.417Z,19.62
2018-11-26T07:28:27.615Z,17.70
2018-11-26T07:29:32.849Z,19.07
2018-11-26T07:30:38.056Z,19.57
2018-11-26T07:31:43.303Z,19.05
2018-11-26T07:32:49.073Z,20.20
2018-11-26T07:33:54.365Z,20.08
2018-11-26T07:34:59.523Z,20.95
2018-11-26T07:36:10.977Z,21.68
2018-11-26T07:37:09.944Z,21.00
2018-11-26T07:38:15.273Z,22.60
2018-11-26T07:39:20.519Z,22.80
2018-11-26T07:40:25.623Z,24.45
2018-11-26T07:41:30.758Z,22.37
2018-11-26T07:42:35.962Z,22.93
2018-11-26T07:43:41.180Z,22.80
2018-11-26T07:44:46.518Z,24.15
2018-11-26T07:45:51.669Z,24.87
2018-11-26T07:46:56.855Z,25.40
2018-11-26T07:48:01.981Z,24.98
2018-11-26T07:49:07.607Z,24.43
2018-11-26T07:50:14.938Z,24.65
2018-11-26T07:51:19.979Z,22.60
2018-11-26T07:52:25.905Z,22.25
2018-11-26T07:53:32.250Z,21.52
2018-11-26T07:54:37.307Z,22.25
2018-11-26T07:55:42.490Z,20.43
2018-11-26T07:56:47.542Z,20.68
2018-11-26T07:57:52.598Z,20.60
2018-11-26T07:58:57.642Z,22.37
2018-11-26T08:00:02.727Z,22.75
2018-11-26T08:01:07.887Z,21.80
2018-11-26T08:02:12.951Z,21.62
2018-11-26T08:03:18.169Z,20.77
2018-11-26T08:04:23.423Z,19.60
2018-11-26T08:05:28.461Z,20.05
2018-11-26T08:06:33.584Z,22.22
2018-11-26T08:07:38.658Z,19.50
2018-11-26T08:08:43.710Z,22.32
2018-11-26T08:09:48.710Z,21.07
2018-11-26T08:10:54.784Z,22.00
2018-11-26T08:11:59.938Z,20.65
2018-11-26T08:13:05.126Z,20.48
2018-11-26T08:14:10.613Z,21.65
2018-11-26T08:15:17.971Z,23.55
2018-11-26T08:16:23.054Z,22.45
2018-11-26T08:17:28.180Z,24.12
2018-11-26T08:18:33.241Z,23.92
2018-11-26T08:19:38.349Z,21.68
2018-11-26T08:20:43.824Z,22.73
2018-11-26T08:21:48.985Z,23.85
2018-11-26T08:22:54.202Z,23.80
2018-11-26T08:23:59.382Z,23.62
2018-11-26T08:25:04.719Z,23.32
2018-11-26T08:26:09.971Z,21.27
2018-11-26T08:27:15.117Z,22.15
2018-11-26T08:28:20.365Z,21.65
2018-11-26T08:29:25.534Z,21.45
2018-11-26T08:30:30.666Z,21.57
2018-11-26T08:31:35.795Z,22.77
2018-11-26T08:32:40.951Z,21.05
2018-11-26T08:33:46.040Z,21.25
2018-11-26T08:34:51.280Z,20.70
2018-11-26T08:36:01.342Z,21.07
2018-11-26T08:37:10.672Z,20.32
2018-11-26T08:38:21.013Z,20.10
2018-11-26T08:40:01.577Z,18.77
2018-11-26T08:41:13.927Z,19.17
2018-11-26T08:42:27.712Z,17.80
2018-11-26T08:43:39.724Z,18.02
2018-11-26T08:44:46.814Z,16.93
2018-11-26T08:45:56.668Z,16.60
2018-11-26T08:47:04.700Z,17.15
2018-11-26T08:48:14.678Z,16.25
2018-11-26T08:49:24.686Z,16.32
2018-11-26T08:50:29.884Z,16.87
2018-11-26T08:51:35.279Z,15.83
2018-11-26T08:52:41.535Z,16.50
2018-11-26T08:53:46.735Z,16.00
2018-11-26T08:54:51.922Z,16.45
2018-11-26T08:55:57.168Z,17.32
2018-11-26T08:57:02.448Z,16.32
2018-11-26T08:58:07.887Z,17.05
2018-11-26T08:59:13.192Z,17.55
2018-11-26T09:00:18.346Z,16.37
2018-11-26T09:01:28.488Z,17.00
2018-11-26T09:02:37.781Z,16.45
2018-11-26T09:03:47.889Z,15.93
2018-11-26T09:04:58.099Z,15.53
2018-11-26T09:06:04.074Z,16.97
2018-11-26T09:07:09.288Z,17.98
2018-11-26T09:08:15.533Z,18.73
2018-11-26T09:09:20.692Z,19.37
2018-11-26T09:10:25.973Z,18.52
2018-11-26T09:11:31.146Z,20.60
2018-11-26T09:12:36.473Z,19.92
2018-11-26T09:13:42.699Z,20.62
2018-11-26T09:14:47.892Z,19.32
2018-11-26T09:15:53.136Z,19.07
2018-11-26T09:16:58.340Z,18.17
2018-11-26T09:18:03.613Z,19.27
2018-11-26T09:19:08.859Z,18.55
2018-11-26T09:20:14.051Z,17.32
2018-11-26T09:21:19.286Z,18.57
2018-11-26T09:22:24.481Z,17.75
2018-11-26T09:23:29.582Z,18.02
2018-11-26T09:24:34.927Z,18.62
2018-11-26T09:25:40.195Z,17.98
2018-11-26T09:26:45.365Z,18.73
2018-11-26T09:27:50.582Z,18.73
2018-11-26T09:28:55.848Z,17.30
2018-11-26T09:30:01.199Z,17.98
2018-11-26T09:31:07.871Z,18.40
2018-11-26T09:32:13.187Z,18.75
2018-11-26T09:33:18.553Z,18.10
2018-11-26T09:34:23.735Z,17.65
2018-11-26T09:35:29.025Z,18.25
2018-11-26T09:36:34.255Z,18.23
2018-11-26T09:37:39.648Z,19.50
2018-11-26T09:38:44.862Z,18.77
2018-11-26T09:39:50.091Z,20.23
2018-11-26T09:40:55.764Z,19.15
2018-11-26T09:42:00.992Z,19.73
2018-11-26T09:43:07.438Z,19.90
2018-11-26T09:44:12.704Z,19.52
2018-11-26T09:45:18.900Z,19.40
2018-11-26T09:46:24.222Z,20.75
2018-11-26T09:47:29.434Z,20.20
2018-11-26T09:48:34.758Z,21.30
2018-11-26T09:49:39.925Z,20.48
2018-11-26T09:50:45.085Z,20.30
2018-11-26T09:51:50.278Z,20.37
2018-11-26T09:52:55.893Z,21.05
2018-11-26T09:54:01.524Z,19.42
2018-11-26T09:55:06.832Z,20.00
2018-11-26T09:56:12.145Z,20.25
2018-11-26T09:57:17.400Z,20.32
2018-11-26T09:58:22.602Z,19.67
2018-11-26T09:59:28.544Z,20.12
2018-11-26T10:00:33.739Z,20.45
2018-11-26T10:01:38.955Z,20.65
2018-11-26T10:02:45.330Z,20.95
2018-11-26T10:03:50.548Z,21.65
2018-11-26T10:04:55.880Z,21.48
2018-11-26T10:06:01.241Z,22.10
2018-11-26T10:07:06.847Z,19.05
2018-11-26T10:08:12.135Z,20.02
2018-11-26T10:09:17.252Z,20.32
2018-11-26T10:10:22.474Z,20.32
2018-11-26T10:11:27.616Z,20.12
2018-11-26T10:12:32.849Z,20.30
2018-11-26T10:13:38.200Z,22.37
2018-11-26T10:14:43.776Z,21.35
2018-11-26T10:15:49.107Z,20.90
2018-11-26T10:16:54.408Z,20.72
2018-11-26T10:17:59.615Z,19.57
2018-11-26T10:19:04.835Z,19.77
2018-11-26T10:20:10.926Z,19.25
2018-11-26T10:21:16.163Z,20.40
2018-11-26T10:22:21.487Z,20.77
2018-11-26T10:23:26.608Z,20.60
2018-11-26T10:24:31.844Z,20.57
2018-11-26T10:25:37.031Z,22.55
2018-11-26T10:26:42.195Z,21.97
2018-11-26T10:27:47.325Z,20.72
2018-11-26T10:28:52.539Z,22.25
2018-11-26T10:29:57.729Z,19.80
2018-11-26T10:31:02.908Z,20.60
2018-11-26T10:32:08.136Z,19.55
2018-11-26T10:33:14.838Z,17.07
2018-11-26T10:34:18.547Z,16.55
2018-11-26T10:35:24.226Z,14.53
2018-11-26T10:36:29.442Z,14.10
2018-11-26T10:37:34.654Z,14.18
2018-11-26T10:38:40.796Z,14.00
2018-11-26T10:39:45.947Z,14.18
2018-11-26T10:40:51.795Z,13.55
2018-11-26T10:41:57.705Z,14.95
2018-11-26T10:43:02.913Z,14.30
2018-11-26T10:44:08.186Z,14.13
2018-11-26T10:45:14.653Z,13.93
2018-11-26T10:46:19.780Z,13.45
2018-11-26T10:47:24.927Z,14.38
2018-11-26T10:48:30.062Z,13.65
2018-11-26T10:49:35.132Z,13.98
2018-11-26T10:50:40.295Z,13.48
2018-11-26T10:51:45.545Z,15.08
2018-11-26T10:52:54.848Z,14.70
2018-11-26T10:54:00.039Z,15.13
2018-11-26T10:55:05.404Z,15.03
2018-11-26T10:56:10.613Z,16.70
2018-11-26T10:57:15.843Z,16.02
2018-11-26T10:58:21.035Z,17.25
2018-11-26T10:59:26.232Z,17.02
2018-11-26T11:00:36.408Z,16.87
2018-11-26T11:01:47.217Z,16.70
2018-11-26T11:02:52.844Z,15.53
2018-11-26T11:03:58.052Z,16.12
2018-11-26T11:05:03.118Z,16.32
2018-11-26T11:06:08.230Z,15.88
2018-11-26T11:07:13.404Z,15.35
2018-11-26T11:08:18.709Z,15.93
2018-11-26T11:09:23.946Z,15.70
2018-11-26T11:10:30.524Z,16.75
2018-11-26T11:11:35.749Z,15.65
2018-11-26T11:12:41.048Z,14.00
2018-11-26T11:13:46.400Z,15.40
2018-11-26T11:14:51.615Z,14.18
2018-11-26T11:15:56.829Z,16.65
2018-11-26T11:17:02.034Z,16.25
2018-11-26T11:18:08.485Z,16.60
2018-11-26T11:19:13.702Z,17.15
2018-11-26T11:20:23.503Z,16.65
2018-11-26T11:21:28.708Z,16.90
2018-11-26T11:22:33.940Z,16.42
2018-11-26T11:23:39.065Z,16.85
2018-11-26T11:24:44.384Z,17.17
2018-11-26T11:25:49.577Z,16.67
2018-11-26T11:26:54.745Z,17.00
2018-11-26T11:27:59.967Z,16.55
2018-11-26T11:29:05.183Z,16.37
2018-11-26T11:30:13.806Z,16.60
2018-11-26T11:31:19.039Z,18.02
2018-11-26T11:32:24.114Z,17.07
2018-11-26T11:33:29.296Z,16.90
2018-11-26T11:34:34.410Z,17.23
2018-11-26T11:35:39.588Z,17.90
2018-11-26T11:36:44.757Z,17.70
2018-11-26T11:37:50.680Z,18.30
2018-11-26T11:38:55.902Z,17.65
2018-11-26T11:40:01.160Z,17.20
2018-11-26T11:41:06.691Z,16.75
2018-11-26T11:42:11.838Z,18.75
2018-11-26T11:43:17.040Z,16.05
2018-11-26T11:44:25.890Z,16.73
2018-11-26T11:45:32.372Z,17.15
2018-11-26T11:46:37.908Z,16.55
2018-11-26T11:47:43.316Z,16.62
2018-11-26T11:48:52.599Z,16.87
2018-11-26T11:49:57.923Z,17.98
2018-11-26T11:51:03.267Z,17.12
2018-11-26T11:52:08.729Z,17.87
2018-11-26T11:53:14.007Z,16.52
2018-11-26T11:54:19.756Z,17.98
2018-11-26T11:55:26.112Z,17.20
2018-11-26T11:56:31.345Z,16.45
2018-11-26T11:57:36.679Z,17.95
2018-11-26T11:58:41.894Z,16.40
2018-11-26T11:59:47.085Z,17.23
2018-11-26T12:00:52.456Z,17.25
2018-11-26T12:01:57.618Z,18.40
2018-11-26T12:03:05.329Z,18.23
2018-11-26T12:04:10.545Z,18.92
2018-11-26T12:05:16.479Z,18.45
2018-11-26T12:06:22.625Z,18.32
2018-11-26T12:07:27.815Z,17.30
2018-11-26T12:08:33.051Z,17.60
2018-11-26T12:09:39.121Z,17.00
2018-11-26T12:10:44.433Z,16.00
2018-11-26T12:11:49.624Z,14.58
2018-11-26T12:12:55.335Z,15.60
2018-11-26T12:14:00.593Z,15.18
2018-11-26T12:15:08.135Z,16.45
2018-11-26T12:16:13.352Z,15.95
2018-11-26T12:17:19.653Z,16.52
2018-11-26T12:18:25.382Z,15.58
2018-11-26T12:19:30.600Z,16.15
2018-11-26T12:20:36.235Z,15.58
2018-11-26T12:21:45.270Z,15.45
2018-11-26T12:22:50.504Z,14.73
2018-11-26T12:23:56.301Z,16.35
2018-11-26T12:25:01.573Z,15.32
2018-11-26T12:26:07.704Z,16.50
2018-11-26T12:27:13.404Z,16.82
2018-11-26T12:28:18.519Z,15.53
2018-11-26T12:29:23.720Z,14.63
2018-11-26T12:30:30.109Z,15.70
2018-11-26T12:31:35.177Z,14.55
2018-11-26T12:32:40.389Z,15.55
2018-11-26T12:33:45.559Z,15.10
2018-11-26T12:34:50.758Z,14.03
2018-11-26T12:35:56.052Z,15.05
2018-11-26T12:37:02.026Z,12.65
2018-11-26T12:38:07.200Z,13.08
2018-11-26T12:39:12.356Z,13.20
2018-11-26T12:40:25.883Z,14.60
2018-11-26T12:41:31.115Z,13.28
2018-11-26T12:42:36.240Z,13.20
2018-11-26T12:43:41.363Z,13.83
2018-11-26T12:44:50.908Z,13.30
2018-11-26T12:45:56.896Z,13.93
2018-11-26T12:47:02.071Z,14.15
2018-11-26T12:48:07.499Z,13.90
2018-11-26T12:49:12.764Z,14.15
2018-11-26T12:50:18.114Z,14.18
2018-11-26T12:51:24.372Z,14.13
2018-11-26T12:52:29.819Z,13.62
2018-11-26T12:53:35.140Z,12.85
2018-11-26T12:54:40.277Z,13.20
2018-11-26T12:55:45.886Z,13.53
2018-11-26T12:56:51.085Z,13.68
2018-11-26T12:57:57.265Z,13.18
2018-11-26T12:59:02.422Z,13.78
2018-11-26T13:00:11.390Z,14.35
2018-11-26T13:01:17.009Z,13.88
2018-11-26T13:02:22.913Z,13.68
2018-11-26T13:03:28.125Z,13.98
2018-11-26T13:04:33.444Z,13.18
2018-11-26T13:05:38.707Z,13.30
2018-11-26T13:06:43.963Z,13.28
2018-11-26T13:07:49.237Z,12.45
2018-11-26T13:08:55.181Z,13.68
2018-11-26T13:10:00.407Z,13.68
2018-11-26T13:11:05.624Z,13.98
2018-11-26T13:12:10.870Z,14.28
2018-11-26T13:13:16.087Z,15.18
2018-11-26T13:14:21.845Z,14.55
2018-11-26T13:15:28.315Z,14.20
2018-11-26T13:16:33.584Z,14.20
2018-11-26T13:17:39.568Z,13.08
2018-11-26T13:18:45.137Z,12.40
2018-11-26T13:19:50.335Z,12.90
2018-11-26T13:20:55.497Z,12.37
2018-11-26T13:22:00.843Z,13.22
2018-11-26T13:23:07.434Z,12.23
2018-11-26T13:24:12.633Z,12.30
2018-11-26T13:25:19.006Z,12.90
2018-11-26T13:26:24.208Z,12.75
2018-11-26T13:27:30.466Z,12.50
2018-11-26T13:28:35.674Z,13.32
2018-11-26T13:29:40.881Z,13.15
2018-11-26T13:30:48.130Z,13.72
2018-11-26T13:31:53.393Z,13.00
2018-11-26T13:33:00.702Z,12.37
2018-11-26T13:34:06.319Z,12.55
2018-11-26T13:35:12.909Z,12.93
2018-11-26T13:36:18.276Z,11.88
2018-11-26T13:37:23.568Z,12.68
2018-11-26T13:38:28.659Z,12.37
2018-11-26T13:39:33.940Z,12.18
2018-11-26T13:40:39.190Z,12.58
2018-11-26T13:41:44.560Z,12.90
2018-11-26T13:42:50.262Z,12.95
2018-11-26T13:43:55.646Z,13.93
2018-11-26T13:45:00.868Z,13.38
2018-11-26T13:46:06.994Z,15.00
2018-11-26T13:47:12.912Z,15.08
2018-11-26T13:48:19.175Z,16.25
2018-11-26T13:49:24.261Z,14.18
2018-11-26T13:50:34.885Z,13.45
2018-11-26T13:51:40.123Z,13.35
2018-11-26T13:52:45.390Z,14.15
2018-11-26T13:53:50.605Z,13.50
2018-11-26T13:54:55.769Z,13.08
2018-11-26T13:56:00.972Z,12.90
2018-11-26T13:57:06.860Z,12.45
2018-11-26T13:58:13.099Z,12.98
2018-11-26T13:59:19.137Z,13.60
2018-11-26T14:00:24.408Z,12.95
2018-11-26T14:01:29.645Z,13.15
2018-11-26T14:02:34.854Z,12.50
2018-11-26T14:03:40.396Z,11.97
2018-11-26T14:04:46.014Z,12.45
2018-11-26T14:05:51.094Z,12.63
2018-11-26T14:06:56.810Z,12.58
2018-11-26T14:08:02.127Z,12.30
2018-11-26T14:09:10.052Z,12.58
2018-11-26T14:10:19.475Z,11.93
2018-11-26T14:11:24.660Z,12.00
2018-11-26T14:12:29.911Z,12.25
2018-11-26T14:13:35.064Z,11.68
2018-11-26T14:14:40.224Z,11.73
2018-11-26T14:15:45.476Z,12.30
2018-11-26T14:16:51.661Z,11.75
2018-11-26T14:17:58.883Z,11.63